Walesville, New York
Current Conditions -  °F | °C
As of 10:53 PM on Wednesday 24 Dec 2014 (Local Time) from KRME Reporting Station
Overcast Overcast  
Wind Chill:   Ceiling: 2100
Heat Index:   Visibility: 10mi
Dew Point:   Wind: 8mph
Humidity: 93%   Direction: 90°E
Pressure: 29.4"   Gusts: NA
Location:  43.1203°N, 75.3249°W
Report Text: KRME 250353Z AUTO 09007KT 10SM OVC021 09/08 A2940 RMK AO2 SLP955 T00940083
Loading
Personal Weather Stations






























Interactive Weather Map New forecast layout! Learn more

10-Day Weather Forecast

Advertisements
Track Severe Weather on mobile